Time;durP1;ratioP1;P1;durP2;ratioP2;P2;SDS_P1;SDS_P2;PMS_P1;PMS_P2;Temp;Humidity;BMP_temperature;BMP_pressure;BME280_temperature;BME280_humidity;BME280_pressure;Samples;Min_cycle;Max_cycle;Signal;HPM_P1;HPM_P2
2022/02/16 00:02:15;;;;;;;5.45;3.70;;;5.80;1.00;;;;;;6274164;22;20977;-84
2022/02/16 00:04:43;;;;;;;5.45;3.20;;;5.80;1.00;;;;;;6273188;22;20245;-84
2022/02/16 00:07:10;;;;;;;6.70;4.20;;;5.80;1.00;;;;;;6275398;22;20190;-84
2022/02/16 00:09:37;;;;;;;4.07;3.45;;;5.90;1.00;;;;;;6275912;22;20188;-84
2022/02/16 00:12:04;;;;;;;4.93;3.80;;;5.90;1.00;;;;;;6274164;22;20192;-82
2022/02/16 00:14:31;;;;;;;5.30;3.45;;;5.90;1.00;;;;;;6278873;22;20342;-83
2022/02/16 00:16:59;;;;;;;5.18;3.55;;;6.00;1.00;;;;;;6279588;22;20290;-85
2022/02/16 00:19:26;;;;;;;4.72;3.50;;;6.00;1.00;;;;;;6277080;22;20251;-83
2022/02/16 00:21:53;;;;;;;3.60;2.90;;;6.00;1.00;;;;;;6275375;22;20198;-84
2022/02/16 00:24:20;;;;;;;4.15;3.28;;;6.00;1.00;;;;;;6278225;22;20193;-83
2022/02/16 00:26:47;;;;;;;5.45;3.20;;;6.00;1.00;;;;;;6282856;22;20195;-83
2022/02/16 00:29:13;;;;;;;4.63;3.30;;;6.00;1.00;;;;;;6287120;22;20243;-85
2022/02/16 00:31:41;;;;;;;3.80;3.05;;;6.00;1.00;;;;;;6287599;22;20198;-84
2022/02/16 00:34:10;;;;;;;5.80;2.90;;;6.00;1.00;;;;;;6290672;22;20240;-85
2022/02/16 00:36:37;;;;;;;4.53;3.20;;;6.00;1.00;;;;;;6284720;22;20192;-85
2022/02/16 00:39:05;;;;;;;2.60;2.25;;;6.00;1.00;;;;;;6281732;22;21080;-85
2022/02/16 00:41:31;;;;;;;3.75;3.28;;;6.00;1.00;;;;;;6279685;22;20196;-85
2022/02/16 00:43:58;;;;;;;4.88;3.20;;;6.10;1.00;;;;;;6279910;22;20216;-86
2022/02/16 00:46:25;;;;;;;4.22;3.22;;;6.00;1.00;;;;;;6283229;22;20208;-85
2022/02/16 00:48:51;;;;;;;4.13;3.33;;;6.00;1.00;;;;;;6281691;22;20188;-86
2022/02/16 00:51:20;;;;;;;5.25;3.05;;;5.90;1.00;;;;;;6280117;22;20724;-86
2022/02/16 00:53:47;;;;;;;7.60;3.60;;;5.80;1.00;;;;;;6280558;22;20718;-86
2022/02/16 00:56:14;;;;;;;6.28;3.47;;;5.80;1.00;;;;;;6282086;22;20394;-86
2022/02/16 00:58:41;;;;;;;3.80;3.10;;;5.80;1.00;;;;;;6280950;22;20192;-85
2022/02/16 01:01:08;;;;;;;3.38;2.80;;;5.70;1.00;;;;;;6278776;22;20207;-84
2022/02/16 01:03:35;;;;;;;4.05;2.90;;;5.70;1.00;;;;;;6279219;22;20219;-85
2022/02/16 01:06:02;;;;;;;5.97;3.63;;;5.60;1.00;;;;;;6279865;22;20272;-85
2022/02/16 01:08:30;;;;;;;5.88;3.42;;;5.60;1.00;;;;;;6279065;22;20276;-85
2022/02/16 01:10:57;;;;;;;5.18;3.22;;;5.60;1.00;;;;;;6284849;22;20534;-86
2022/02/16 01:13:24;;;;;;;7.63;2.95;;;5.50;1.00;;;;;;6280038;22;20188;-86
2022/02/16 01:15:51;;;;;;;6.30;3.15;;;5.50;1.00;;;;;;6280957;22;20220;-85
2022/02/16 01:18:18;;;;;;;5.97;3.25;;;5.50;1.00;;;;;;6281427;22;20215;-86
2022/02/16 01:20:45;;;;;;;4.70;3.38;;;5.40;1.00;;;;;;6284338;22;20526;-84
2022/02/16 01:23:12;;;;;;;6.25;3.38;;;5.40;1.00;;;;;;6278108;22;20606;-86
2022/02/16 01:25:40;;;;;;;4.22;2.95;;;5.30;1.00;;;;;;6278401;22;20192;-86
2022/02/16 01:28:07;;;;;;;10.48;4.32;;;5.20;1.00;;;;;;6277328;22;20267;-87
2022/02/16 01:30:34;;;;;;;3.78;3.13;;;5.10;1.00;;;;;;6274764;22;20219;-86
2022/02/16 01:33:00;;;;;;;3.90;3.10;;;5.10;1.00;;;;;;6275420;22;20204;-86
2022/02/16 01:35:27;;;;;;;5.18;3.35;;;5.10;1.00;;;;;;6276889;22;20284;-87
2022/02/16 01:37:54;;;;;;;4.05;3.08;;;5.10;1.00;;;;;;6272069;22;20199;-85
2022/02/16 01:40:21;;;;;;;6.07;3.83;;;5.00;1.00;;;;;;6278707;22;20723;-86
2022/02/16 01:42:49;;;;;;;5.32;4.03;;;5.00;1.00;;;;;;6277370;22;21098;-85
2022/02/16 01:45:23;;;;;;;6.60;3.88;;;5.00;1.00;;;;;;6277929;22;20204;-86
2022/02/16 01:47:50;;;;;;;5.18;4.00;;;5.00;1.00;;;;;;6277955;22;20255;-86
2022/02/16 01:50:17;;;;;;;5.47;4.05;;;5.00;1.00;;;;;;6278316;22;20222;-86
2022/02/16 01:52:43;;;;;;;4.57;3.42;;;5.00;1.00;;;;;;6281276;22;20220;-85
2022/02/16 01:55:11;;;;;;;5.80;3.75;;;5.00;1.00;;;;;;6289435;22;20201;-86
2022/02/16 01:57:40;;;;;;;6.47;4.00;;;4.90;1.00;;;;;;6276043;22;20194;-86
2022/02/16 02:00:09;;;;;;;5.28;3.80;;;4.90;1.00;;;;;;6274802;22;20228;-86
2022/02/16 02:02:36;;;;;;;4.60;4.00;;;4.90;1.00;;;;;;6277252;22;20246;-86
2022/02/16 02:05:04;;;;;;;6.82;4.45;;;4.90;1.00;;;;;;6277494;22;20188;-86
2022/02/16 02:07:31;;;;;;;5.95;3.67;;;4.90;1.00;;;;;;6290158;22;20208;-86
2022/02/16 02:09:57;;;;;;;6.45;4.20;;;4.90;1.00;;;;;;6279821;22;20270;-87
2022/02/16 02:12:24;;;;;;;7.10;4.80;;;4.80;1.00;;;;;;6277832;22;20216;-87
2022/02/16 02:14:52;;;;;;;7.22;3.88;;;4.80;1.00;;;;;;6279897;22;20231;-88
2022/02/16 02:17:20;;;;;;;5.25;4.45;;;4.90;1.00;;;;;;6289564;22;20191;-87
2022/02/16 02:19:47;;;;;;;4.97;4.20;;;4.80;1.00;;;;;;6285367;22;20553;-88
2022/02/16 02:22:16;;;;;;;6.00;4.53;;;4.80;1.00;;;;;;6277516;22;20203;-88
2022/02/16 02:24:43;;;;;;;4.20;3.58;;;4.80;1.00;;;;;;6275011;22;20727;-87
2022/02/16 02:27:10;;;;;;;5.13;3.72;;;4.80;1.00;;;;;;6278540;22;20184;-87
2022/02/16 02:29:39;;;;;;;6.47;4.38;;;4.80;1.00;;;;;;6277170;22;20192;-87
2022/02/16 02:32:06;;;;;;;8.25;4.40;;;4.80;1.00;;;;;;6278888;22;20288;-88
2022/02/16 02:34:33;;;;;;;6.07;4.30;;;4.80;1.00;;;;;;6276365;22;20196;-87
2022/02/16 02:37:00;;;;;;;6.38;4.10;;;4.80;1.00;;;;;;6275345;22;20989;-87
2022/02/16 02:39:29;;;;;;;6.20;5.03;;;4.80;1.00;;;;;;6276460;22;20258;-87
2022/02/16 02:41:56;;;;;;;6.00;4.20;;;4.80;1.00;;;;;;6277070;22;20193;-87
2022/02/16 02:44:23;;;;;;;5.72;4.63;;;4.80;1.00;;;;;;6276763;22;20282;-88
2022/02/16 02:46:50;;;;;;;5.57;5.05;;;4.80;1.00;;;;;;6277574;22;20199;-88
2022/02/16 02:49:18;;;;;;;5.32;4.55;;;4.80;1.00;;;;;;6279319;22;20192;-88
2022/02/16 02:51:45;;;;;;;5.65;4.20;;;4.80;1.00;;;;;;6280605;22;20996;-89
2022/02/16 02:54:12;;;;;;;6.03;4.10;;;4.80;1.00;;;;;;6277553;22;20185;-89
2022/02/16 02:56:41;;;;;;;5.97;4.45;;;4.80;1.00;;;;;;6280288;22;20246;-87
2022/02/16 02:59:08;;;;;;;6.15;4.53;;;4.90;1.00;;;;;;6304119;22;20264;-88
2022/02/16 03:01:35;;;;;;;6.22;4.20;;;4.90;1.00;;;;;;6303874;22;20181;-88
2022/02/16 03:04:02;;;;;;;4.78;4.32;;;4.90;1.00;;;;;;6304406;22;20228;-88
2022/02/16 03:06:28;;;;;;;8.88;4.53;;;4.90;1.00;;;;;;6305536;22;20191;-90
2022/02/16 03:08:55;;;;;;;6.40;4.65;;;4.90;1.00;;;;;;6304280;22;20211;-86
2022/02/16 03:11:22;;;;;;;6.78;5.05;;;4.90;1.00;;;;;;6303722;22;20198;-87
2022/02/16 03:13:51;;;;;;;5.05;4.55;;;4.80;1.00;;;;;;6305771;22;20176;-87
2022/02/16 03:16:17;;;;;;;7.75;4.47;;;4.80;1.00;;;;;;6307463;22;20203;-88
2022/02/16 03:18:44;;;;;;;7.15;5.03;;;4.90;1.00;;;;;;6304737;22;20275;-87
2022/02/16 03:21:13;;;;;;;6.00;4.55;;;4.90;1.00;;;;;;6303321;22;20180;-87
2022/02/16 03:23:41;;;;;;;5.90;4.70;;;4.90;1.00;;;;;;6304676;22;20225;-88
2022/02/16 03:26:10;;;;;;;7.63;4.57;;;4.90;1.00;;;;;;6308948;22;20188;-88
2022/02/16 03:28:37;;;;;;;7.35;4.90;;;4.90;1.00;;;;;;6307808;22;20184;-88
2022/02/16 03:31:07;;;;;;;6.53;4.05;;;4.90;1.00;;;;;;6297652;22;20208;-87
2022/02/16 03:33:33;;;;;;;5.88;4.20;;;4.90;1.00;;;;;;6280986;22;20653;-86
2022/02/16 03:36:01;;;;;;;6.22;4.13;;;4.90;1.00;;;;;;6279713;22;20193;-86
2022/02/16 03:38:28;;;;;;;6.10;4.28;;;4.90;1.00;;;;;;6277892;22;20193;-85
2022/02/16 03:40:55;;;;;;;6.75;4.45;;;4.90;1.00;;;;;;6287115;22;20180;-85
2022/02/16 03:43:22;;;;;;;6.38;4.82;;;4.90;1.00;;;;;;6282930;22;20242;-85
2022/02/16 03:45:49;;;;;;;6.22;4.93;;;5.00;1.00;;;;;;6276066;22;20192;-85
2022/02/16 03:48:18;;;;;;;7.35;4.38;;;5.00;1.00;;;;;;6281144;22;20902;-86
2022/02/16 03:50:45;;;;;;;6.75;4.82;;;5.00;1.00;;;;;;6298853;22;20180;-85
2022/02/16 03:53:11;;;;;;;7.15;4.22;;;5.00;1.00;;;;;;6307214;22;20214;-85
2022/02/16 03:55:38;;;;;;;5.80;4.65;;;5.00;1.00;;;;;;6307930;22;20185;-85
2022/02/16 03:58:05;;;;;;;7.38;4.18;;;5.10;1.00;;;;;;6304729;22;20976;-87
2022/02/16 04:00:32;;;;;;;4.57;3.95;;;5.10;1.00;;;;;;6284674;22;20188;-86
2022/02/16 04:02:59;;;;;;;4.57;4.18;;;5.10;1.00;;;;;;6285155;22;20232;-86
2022/02/16 04:05:27;;;;;;;5.75;4.65;;;5.10;1.00;;;;;;6278316;22;20279;-86
2022/02/16 04:07:53;;;;;;;6.70;4.00;;;5.10;1.00;;;;;;6277748;22;20658;-86
2022/02/16 04:10:20;;;;;;;6.63;4.60;;;5.20;1.00;;;;;;6275963;22;20286;-87
2022/02/16 04:12:47;;;;;;;4.80;4.00;;;5.20;1.00;;;;;;6277511;22;20203;-87
2022/02/16 04:15:15;;;;;;;5.45;4.80;;;5.20;1.00;;;;;;6277821;22;20203;-87
2022/02/16 04:17:42;;;;;;;6.95;4.50;;;5.20;1.00;;;;;;6278630;22;20207;-87
2022/02/16 04:20:11;;;;;;;5.78;3.97;;;5.30;1.00;;;;;;6279165;22;21037;-87
2022/02/16 04:22:42;;;;;;;5.75;4.90;;;5.30;1.00;;;;;;6277095;22;20230;-87
2022/02/16 04:25:10;;;;;;;6.82;4.90;;;5.30;1.00;;;;;;6277313;22;20200;-87
2022/02/16 04:27:37;;;;;;;5.45;4.82;;;5.40;1.00;;;;;;6281154;22;20196;-87
2022/02/16 04:30:05;;;;;;;8.45;4.60;;;5.40;1.00;;;;;;6280456;22;20735;-88
2022/02/16 04:32:32;;;;;;;5.53;4.30;;;5.40;1.00;;;;;;6278434;22;20200;-88
2022/02/16 04:34:59;;;;;;;10.15;4.95;;;5.40;1.00;;;;;;6280616;22;20216;-88
2022/02/16 04:37:26;;;;;;;5.75;3.80;;;5.40;1.00;;;;;;6280395;22;20192;-89
2022/02/16 04:39:56;;;;;;;5.53;3.75;;;5.40;1.00;;;;;;6277315;22;20244;-89
2022/02/16 04:42:23;;;;;;;8.05;4.53;;;5.40;1.00;;;;;;6279371;22;20294;-88
2022/02/16 04:44:51;;;;;;;4.82;3.95;;;5.40;1.00;;;;;;6281996;22;20192;-87
2022/02/16 04:47:17;;;;;;;7.30;4.53;;;5.50;1.00;;;;;;6277168;22;20207;-87
2022/02/16 04:49:44;;;;;;;6.30;3.65;;;5.50;1.00;;;;;;6281723;22;20192;-87
2022/02/16 04:52:12;;;;;;;5.00;3.83;;;5.60;1.00;;;;;;6281302;22;20329;-88
2022/02/16 04:54:40;;;;;;;4.50;3.92;;;5.60;1.00;;;;;;6278191;22;20193;-88
2022/02/16 04:57:08;;;;;;;7.43;4.63;;;5.60;1.00;;;;;;6292519;22;20208;-86
2022/02/16 04:59:35;;;;;;;3.83;3.47;;;5.60;1.00;;;;;;6301786;22;20180;-88
2022/02/16 05:02:03;;;;;;;6.15;5.47;;;5.60;1.00;;;;;;6297228;22;20180;-87
2022/02/16 05:04:30;;;;;;;5.18;4.68;;;5.60;1.00;;;;;;6300639;22;20172;-87
2022/02/16 05:06:57;;;;;;;4.55;3.80;;;5.70;1.00;;;;;;6302722;22;20189;-87
2022/02/16 05:09:24;;;;;;;4.10;3.67;;;5.70;1.00;;;;;;6297414;22;20212;-89
2022/02/16 05:11:51;;;;;;;4.63;4.15;;;5.70;1.00;;;;;;6288507;22;20197;-82
2022/02/16 05:14:19;;;;;;;4.10;3.70;;;5.70;1.00;;;;;;6290101;22;20192;-85
2022/02/16 05:16:46;;;;;;;5.20;4.30;;;5.70;1.00;;;;;;6288661;22;20196;-83
2022/02/16 05:19:14;;;;;;;5.20;4.30;;;5.80;1.00;;;;;;6282318;22;20222;-85
2022/02/16 05:21:40;;;;;;;6.05;4.35;;;5.80;1.00;;;;;;6287532;22;20589;-85
2022/02/16 05:24:10;;;;;;;4.50;3.90;;;5.80;1.00;;;;;;6287033;22;20720;-85
2022/02/16 05:26:38;;;;;;;4.75;3.90;;;5.80;1.00;;;;;;6286335;22;20642;-83
2022/02/16 05:29:05;;;;;;;5.65;4.40;;;5.80;1.00;;;;;;6279604;22;20194;-84
2022/02/16 05:31:33;;;;;;;6.15;4.35;;;5.80;1.00;;;;;;6280581;22;20211;-86
2022/02/16 05:34:01;;;;;;;4.13;3.72;;;5.90;1.00;;;;;;6279635;22;20188;-88
2022/02/16 05:36:27;;;;;;;5.90;4.20;;;5.80;1.00;;;;;;6289771;22;20200;-86
2022/02/16 05:38:54;;;;;;;5.15;4.10;;;5.80;1.00;;;;;;6283455;22;20192;-84
2022/02/16 05:41:22;;;;;;;4.32;3.67;;;5.90;1.00;;;;;;6282108;22;20206;-85
2022/02/16 05:43:49;;;;;;;5.10;4.18;;;5.80;1.00;;;;;;6282950;22;20215;-84
2022/02/16 05:46:16;;;;;;;5.03;3.47;;;5.80;1.00;;;;;;6281706;22;20200;-85
2022/02/16 05:48:44;;;;;;;5.10;3.65;;;5.80;1.00;;;;;;6280314;22;20203;-83
2022/02/16 05:51:10;;;;;;;4.53;3.88;;;5.80;1.00;;;;;;6281170;22;20199;-85
2022/02/16 05:53:37;;;;;;;5.93;3.85;;;5.80;1.00;;;;;;6281254;22;20196;-81
2022/02/16 05:56:04;;;;;;;5.72;3.70;;;5.70;1.00;;;;;;6280262;22;20184;-83
2022/02/16 05:58:32;;;;;;;4.63;3.92;;;5.70;1.00;;;;;;6281690;22;20185;-81
2022/02/16 06:01:00;;;;;;;4.55;3.45;;;5.70;1.00;;;;;;6280075;22;20701;-84
2022/02/16 06:03:27;;;;;;;5.20;3.88;;;5.80;1.00;;;;;;6286734;22;20191;-83
2022/02/16 06:05:55;;;;;;;6.93;4.20;;;5.80;1.00;;;;;;6280027;22;20200;-85
2022/02/16 06:08:23;;;;;;;5.00;3.50;;;5.80;1.00;;;;;;6288869;22;20232;-84
2022/02/16 06:10:49;;;;;;;3.88;3.30;;;5.80;1.00;;;;;;6280074;22;20211;-85
2022/02/16 06:13:16;;;;;;;4.28;3.65;;;5.80;1.00;;;;;;6290347;22;20204;-85
2022/02/16 06:15:43;;;;;;;4.82;4.03;;;5.80;1.00;;;;;;6281894;22;20197;-85
2022/02/16 06:18:10;;;;;;;4.60;3.45;;;5.70;1.00;;;;;;6282292;22;20193;-86
2022/02/16 06:20:37;;;;;;;5.40;3.45;;;5.70;1.00;;;;;;6284924;22;20185;-83
2022/02/16 06:23:06;;;;;;;5.15;3.50;;;5.70;1.00;;;;;;6286733;22;20192;-87
2022/02/16 06:25:32;;;;;;;4.22;3.65;;;5.70;1.00;;;;;;6283287;22;20274;-83
2022/02/16 06:28:29;;;;;;;6.78;3.10;;;5.70;1.00;;;;;;6275924;22;20551;-88
2022/02/16 06:53:28;;;;;;;4.38;3.30;;;5.70;1.00;;;;;;6228008;23;20265;-87
2022/02/16 06:56:17;;;;;;;4.45;3.88;;;5.70;1.00;;;;;;6222798;22;20332;-84
2022/02/16 06:59:20;;;;;;;8.18;4.72;;;5.60;1.00;;;;;;6217786;23;20186;-85
2022/02/16 07:19:58;;;;;;;5.45;4.10;;;5.50;1.00;;;;;;6134521;22;21567;-83
2022/02/16 07:22:25;;;;;;;4.10;3.65;;;5.50;1.00;;;;;;6281181;22;20222;-80
2022/02/16 07:24:53;;;;;;;5.97;4.22;;;5.50;1.00;;;;;;6278660;22;20260;-81
2022/02/16 07:27:20;;;;;;;5.35;3.35;;;5.60;1.00;;;;;;6312089;22;20202;-82
2022/02/16 07:29:47;;;;;;;5.47;3.95;;;5.60;1.00;;;;;;6315210;22;20187;-81
2022/02/16 07:32:14;;;;;;;5.00;3.90;;;5.60;1.00;;;;;;6308484;22;20203;-81
2022/02/16 07:34:41;;;;;;;11.68;5.07;;;5.60;1.00;;;;;;6307094;22;21566;-80
2022/02/16 07:37:07;;;;;;;4.70;4.20;;;5.60;1.00;;;;;;6308859;22;20752;-82
2022/02/16 07:39:34;;;;;;;10.13;4.07;;;5.60;1.00;;;;;;6305805;22;20222;-82
2022/02/16 07:42:03;;;;;;;4.40;3.42;;;5.60;1.00;;;;;;6303386;22;21145;-81
2022/02/16 07:44:30;;;;;;;3.53;3.00;;;5.60;1.00;;;;;;6307017;22;20198;-81
2022/02/16 07:46:57;;;;;;;4.60;3.10;;;5.60;1.00;;;;;;6278937;22;20280;-81
2022/02/16 07:49:24;;;;;;;3.30;2.80;;;5.70;1.00;;;;;;6303715;22;20671;-81
2022/02/16 07:51:51;;;;;;;4.43;2.92;;;5.70;1.00;;;;;;6306981;22;20198;-81
2022/02/16 07:54:18;;;;;;;3.90;2.60;;;5.70;1.00;;;;;;6310273;22;20195;-82
2022/02/16 07:56:45;;;;;;;2.88;2.40;;;5.70;1.00;;;;;;6280874;22;20206;-81
2022/02/16 07:59:13;;;;;;;4.22;3.05;;;5.80;1.00;;;;;;6313749;22;20211;-82
2022/02/16 08:01:40;;;;;;;2.83;2.35;;;5.80;1.00;;;;;;6283420;22;20189;-80
2022/02/16 08:04:19;;;;;;;5.57;2.83;;;5.90;1.00;;;;;;6307915;22;20293;-81
2022/02/16 08:06:50;;;;;;;3.33;2.50;;;5.90;1.00;;;;;;6316536;22;20275;-81
2022/02/16 08:09:18;;;;;;;3.95;2.97;;;6.00;1.00;;;;;;6321932;22;20187;-80
2022/02/16 08:11:46;;;;;;;3.55;2.35;;;5.90;1.00;;;;;;6318808;22;20187;-81
2022/02/16 08:14:15;;;;;;;3.20;2.30;;;6.00;1.00;;;;;;6310118;22;20249;-81
2022/02/16 08:16:42;;;;;;;4.07;2.20;;;5.90;1.00;;;;;;6304493;22;20967;-81
2022/02/16 08:19:11;;;;;;;3.50;2.53;;;6.00;1.00;;;;;;6301674;22;20245;-81
2022/02/16 08:21:39;;;;;;;2.40;2.00;;;6.00;1.00;;;;;;6278415;22;21206;-79
2022/02/16 08:24:07;;;;;;;3.10;1.95;;;5.90;1.00;;;;;;6314611;22;20208;-80
2022/02/16 08:26:35;;;;;;;3.10;2.00;;;5.90;1.00;;;;;;6276897;22;20200;-80
2022/02/16 08:29:02;;;;;;;2.83;2.20;;;5.90;1.00;;;;;;6302874;22;21007;-81
2022/02/16 08:31:30;;;;;;;2.83;2.13;;;6.00;1.00;;;;;;6305851;22;20188;-80
2022/02/16 08:33:57;;;;;;;3.75;2.85;;;6.00;1.00;;;;;;6304693;22;20277;-81
2022/02/16 08:36:23;;;;;;;4.28;3.10;;;6.10;1.00;;;;;;6304864;22;20246;-81
2022/02/16 08:38:54;;;;;;;3.25;2.42;;;6.20;1.00;;;;;;6308274;22;20187;-86
2022/02/16 08:41:41;;;;;;;2.20;1.70;;;6.30;1.00;;;;;;6288580;22;20335;-88
2022/02/16 08:44:20;;;;;;;2.13;1.40;;;6.40;1.00;;;;;;6315381;22;20183;-89
2022/02/16 08:46:57;;;;;;;2.63;1.67;;;6.40;1.00;;;;;;6319306;22;20195;-89
2022/02/16 08:49:38;;;;;;;2.05;1.15;;;6.40;1.00;;;;;;6296418;22;20218;-86
2022/02/16 08:52:10;;;;;;;2.83;1.77;;;6.30;1.00;;;;;;6309094;22;20187;-86
2022/02/16 08:54:37;;;;;;;2.95;2.17;;;6.20;1.00;;;;;;6335654;22;20263;-86
2022/02/16 08:57:36;;;;;;;4.05;1.80;;;6.30;1.00;;;;;;6334932;22;20192;-86
2022/02/16 09:00:05;;;;;;;3.28;2.13;;;6.30;1.00;;;;;;6285903;22;20289;-87
2022/02/16 09:02:33;;;;;;;3.63;2.03;;;6.40;1.00;;;;;;6284009;22;20201;-85
2022/02/16 09:05:01;;;;;;;2.60;1.77;;;6.50;1.00;;;;;;6281657;22;20226;-86
2022/02/16 09:07:39;;;;;;;1.92;1.13;;;6.40;1.00;;;;;;6333009;22;20184;-86
2022/02/16 09:10:26;;;;;;;2.53;1.40;;;6.50;1.00;;;;;;6324908;22;20183;-86
2022/02/16 09:12:53;;;;;;;1.73;1.15;;;6.50;1.00;;;;;;6320340;22;20199;-85
2022/02/16 09:15:27;;;;;;;2.22;1.10;;;6.50;1.00;;;;;;6275575;22;20199;-89
2022/02/16 09:22:13;;;;;;;2.20;1.17;;;6.50;1.00;;;;;;6219664;22;21089;-87
2022/02/16 09:25:17;;;;;;;2.58;1.25;;;6.40;1.00;;;;;;6307638;22;20195;-86
2022/02/16 09:27:56;;;;;;;2.95;1.33;;;6.40;1.00;;;;;;6288282;22;20192;-89
2022/02/16 09:30:37;;;;;;;2.45;1.30;;;6.50;1.00;;;;;;6311373;22;20192;-86
2022/02/16 09:33:43;;;;;;;2.15;1.30;;;6.50;1.00;;;;;;6316830;22;20199;-88
2022/02/16 09:44:28;;;;;;;2.17;1.27;;;6.70;1.00;;;;;;6048789;23;20194;-89
2022/02/16 09:50:58;;;;;;;1.70;1.10;;;6.80;1.00;;;;;;6061266;23;20208;-89
2022/02/16 10:12:50;;;;;;;2.05;1.17;;;6.70;1.00;;;;;;6276280;22;20203;-88
2022/02/16 10:57:00;;;;;;;3.92;1.63;;;6.50;1.00;;;;;;6279726;22;20624;-87
2022/02/16 11:02:23;;;;;;;2.90;2.10;;;6.60;1.00;;;;;;6223648;22;20200;-79
2022/02/16 11:05:17;;;;;;;3.05;1.75;;;6.70;1.00;;;;;;6281204;22;20184;-84
2022/02/16 11:07:45;;;;;;;3.13;2.20;;;6.70;1.00;;;;;;6286894;22;20254;-84
2022/02/16 11:10:28;;;;;;;3.28;1.85;;;6.70;1.00;;;;;;6277989;22;20188;-84
2022/02/16 11:13:27;;;;;;;3.85;2.15;;;6.70;1.00;;;;;;6280633;22;20205;-84
2022/02/16 11:16:29;;;;;;;3.05;2.20;;;6.80;1.00;;;;;;6284873;22;20210;-83
2022/02/16 11:19:26;;;;;;;4.10;2.65;;;6.70;1.00;;;;;;6253057;22;20199;-83
2022/02/16 11:23:02;;;;;;;4.80;3.00;;;6.70;1.00;;;;;;6280083;22;20184;-85
2022/02/16 11:25:48;;;;;;;4.32;2.50;;;6.70;1.00;;;;;;6277279;22;20204;-83
2022/02/16 11:28:31;;;;;;;3.25;1.90;;;6.80;1.00;;;;;;6245197;22;20192;-85
2022/02/16 11:31:30;;;;;;;3.40;1.80;;;6.80;1.00;;;;;;6282954;22;20191;-84
2022/02/16 11:34:19;;;;;;;3.75;2.20;;;6.80;1.00;;;;;;6279399;22;20201;-84
2022/02/16 11:36:52;;;;;;;3.38;1.90;;;6.80;1.00;;;;;;6264577;22;20207;-83
2022/02/16 11:39:59;;;;;;;3.13;1.80;;;6.90;1.00;;;;;;6273238;22;20195;-83
2022/02/16 11:42:52;;;;;;;2.20;1.73;;;6.90;1.00;;;;;;6277088;22;20321;-83
2022/02/16 11:45:41;;;;;;;2.35;1.75;;;6.80;1.00;;;;;;6246705;22;20231;-85
2022/02/16 11:48:14;;;;;;;2.90;1.88;;;6.80;1.00;;;;;;6256995;22;20188;-86
2022/02/16 11:50:45;;;;;;;2.75;1.83;;;6.70;1.00;;;;;;6282997;22;20321;-87
2022/02/16 11:53:14;;;;;;;2.75;1.90;;;6.70;1.00;;;;;;6284168;22;20193;-83
2022/02/16 11:55:46;;;;;;;2.40;1.60;;;6.70;1.00;;;;;;6253931;22;20216;-87
2022/02/16 11:58:21;;;;;;;2.33;2.00;;;6.80;1.00;;;;;;6270228;22;20191;-85
2022/02/16 12:00:59;;;;;;;3.20;2.10;;;6.80;1.00;;;;;;6280699;22;20274;-83
2022/02/16 12:03:31;;;;;;;3.33;2.55;;;6.80;1.00;;;;;;6286200;22;20187;-81
2022/02/16 12:06:15;;;;;;;2.70;1.80;;;6.80;1.00;;;;;;6286645;22;20243;-84
2022/02/16 12:09:02;;;;;;;3.97;2.13;;;6.80;1.00;;;;;;6283474;22;20195;-81
2022/02/16 12:11:29;;;;;;;2.63;1.80;;;6.80;1.00;;;;;;6248581;22;20279;-80
2022/02/16 12:14:01;;;;;;;3.20;2.20;;;6.80;1.00;;;;;;6280305;22;20215;-81
2022/02/16 12:16:32;;;;;;;2.88;2.22;;;6.80;1.00;;;;;;6281900;22;20203;-82
2022/02/16 12:19:02;;;;;;;2.50;2.10;;;6.80;1.00;;;;;;6279544;22;20794;-81
2022/02/16 12:21:31;;;;;;;4.45;3.28;;;6.80;1.00;;;;;;6276759;22;20260;-80
2022/02/16 12:24:00;;;;;;;3.03;2.00;;;6.80;1.00;;;;;;6281035;22;20189;-82
2022/02/16 12:26:35;;;;;;;3.10;2.55;;;6.80;1.00;;;;;;6279507;22;20204;-81
2022/02/16 12:29:04;;;;;;;3.35;2.78;;;6.80;1.00;;;;;;6253870;22;20187;-81
2022/02/16 12:31:35;;;;;;;3.05;2.50;;;6.80;1.00;;;;;;6249323;22;20196;-82
2022/02/16 12:34:05;;;;;;;3.22;2.53;;;6.90;1.00;;;;;;6278346;22;20196;-82
2022/02/16 12:36:34;;;;;;;8.00;6.38;;;6.80;1.00;;;;;;6279774;22;20192;-81
2022/02/16 12:39:05;;;;;;;4.50;2.40;;;6.90;1.00;;;;;;6279484;22;21390;-81
2022/02/16 12:41:34;;;;;;;4.47;2.50;;;6.90;1.00;;;;;;6281569;22;20435;-82
2022/02/16 12:44:03;;;;;;;2.72;2.45;;;6.90;1.00;;;;;;6285606;22;20223;-81
2022/02/16 12:46:33;;;;;;;4.40;2.60;;;6.90;1.00;;;;;;6285149;22;20260;-81
2022/02/16 12:49:01;;;;;;;2.70;2.50;;;7.00;1.00;;;;;;6290129;22;20600;-82
2022/02/16 12:51:31;;;;;;;3.65;2.92;;;7.00;1.00;;;;;;6259820;22;20199;-81
2022/02/16 12:54:03;;;;;;;2.88;2.58;;;7.00;1.00;;;;;;6287411;22;20187;-80
2022/02/16 12:56:34;;;;;;;3.78;2.67;;;7.00;1.00;;;;;;6287261;22;20199;-83
2022/02/16 13:07:05;;;;;;;4.72;2.40;;;7.20;1.00;;;;;;6291306;22;20252;-90
2022/02/16 13:10:23;;;;;;;2.90;2.35;;;7.20;1.00;;;;;;6018036;23;20201;-87
2022/02/16 13:17:28;;;;;;;;;;;;;;;;;;;;;
2022/02/16 13:20:20;;;;;;;2.90;2.60;;;7.40;1.00;;;;;;6274986;22;20251;-82
2022/02/16 13:22:58;;;;;;;2.33;2.08;;;7.40;1.00;;;;;;6257282;22;20698;-83
2022/02/16 13:25:34;;;;;;;3.50;2.25;;;7.50;1.00;;;;;;6288242;22;20270;-83
2022/02/16 13:28:03;;;;;;;5.00;4.45;;;7.50;1.00;;;;;;6261307;22;20513;-80
2022/02/16 13:30:32;;;;;;;2.15;1.90;;;7.60;1.00;;;;;;6279382;22;20449;-83
2022/02/16 13:33:00;;;;;;;2.58;2.00;;;7.60;1.00;;;;;;6255337;22;20202;-84
2022/02/16 13:35:30;;;;;;;2.67;1.98;;;7.70;1.00;;;;;;6278528;22;20970;-83
2022/02/16 13:38:00;;;;;;;3.05;2.53;;;7.80;1.00;;;;;;6278627;22;20179;-82
2022/02/16 13:40:29;;;;;;;2.30;1.83;;;7.80;1.00;;;;;;6279523;22;20195;-83
2022/02/16 13:43:02;;;;;;;3.00;1.90;;;7.80;1.00;;;;;;6280432;22;20188;-83
2022/02/16 13:45:31;;;;;;;3.03;1.50;;;7.90;1.00;;;;;;6281786;22;20198;-81
2022/02/16 13:47:58;;;;;;;4.95;2.13;;;7.90;1.00;;;;;;6279815;22;20202;-81
2022/02/16 13:50:31;;;;;;;2.47;1.50;;;8.00;1.00;;;;;;6295855;22;20174;-82
2022/02/16 13:53:13;;;;;;;3.65;1.52;;;8.00;1.00;;;;;;6296138;22;20182;-83
2022/02/16 13:55:47;;;;;;;5.63;2.88;;;8.00;1.00;;;;;;6269110;22;20491;-82
2022/02/16 13:58:15;;;;;;;3.00;2.10;;;8.10;1.00;;;;;;6254901;22;20215;-83
2022/02/16 14:00:43;;;;;;;2.58;1.75;;;8.10;1.00;;;;;;6251662;22;20200;-82
2022/02/16 14:03:15;;;;;;;2.80;2.30;;;8.20;1.00;;;;;;6289890;22;20694;-80
2022/02/16 14:05:43;;;;;;;3.25;1.55;;;8.10;1.00;;;;;;6282779;22;20194;-80
2022/02/16 14:08:10;;;;;;;1.90;1.40;;;8.20;1.00;;;;;;6279078;22;20186;-81
2022/02/16 14:10:38;;;;;;;2.75;1.60;;;8.20;1.00;;;;;;6276527;22;20195;-81
2022/02/16 14:30:45;;;;;;;1.90;1.60;;;8.50;1.00;;;;;;6343910;22;20678;-87
2022/02/16 14:33:14;;;;;;;3.40;1.70;;;8.60;1.00;;;;;;6316554;22;20269;-87
2022/02/16 14:35:41;;;;;;;2.85;1.63;;;8.60;1.00;;;;;;6318165;22;20530;-84
2022/02/16 14:38:08;;;;;;;2.67;2.10;;;8.60;1.00;;;;;;6349578;22;20209;-86
2022/02/16 14:40:38;;;;;;;2.20;1.60;;;8.60;1.00;;;;;;6359334;22;20199;-83
2022/02/16 14:43:05;;;;;;;2.80;1.52;;;8.60;1.00;;;;;;6349389;22;21037;-85
2022/02/16 14:45:36;;;;;;;2.58;1.70;;;8.70;1.00;;;;;;6311785;22;20192;-88
2022/02/16 14:48:03;;;;;;;2.50;1.20;;;8.70;1.00;;;;;;6316232;22;20209;-83
2022/02/16 14:50:30;;;;;;;1.90;1.30;;;8.80;1.00;;;;;;6340664;22;20397;-84
2022/02/16 14:52:57;;;;;;;2.00;1.33;;;8.80;1.00;;;;;;6344228;22;20225;-84
2022/02/16 14:55:24;;;;;;;2.50;1.27;;;8.90;1.00;;;;;;6339270;22;21078;-84
2022/02/16 14:57:53;;;;;;;2.87;1.70;;;8.90;1.00;;;;;;6340901;22;20938;-84
2022/02/16 15:00:21;;;;;;;1.90;1.10;;;9.00;1.00;;;;;;6340034;22;20414;-85
2022/02/16 15:02:50;;;;;;;2.80;1.50;;;9.00;1.00;;;;;;6336459;22;20413;-83
2022/02/16 15:05:17;;;;;;;1.80;1.10;;;9.10;1.00;;;;;;6312933;22;20202;-84
2022/02/16 15:07:44;;;;;;;2.05;1.40;;;9.20;1.00;;;;;;6341291;22;21339;-82
2022/02/16 15:10:10;;;;;;;2.00;1.40;;;9.30;1.00;;;;;;6339726;22;20675;-83
2022/02/16 15:12:40;;;;;;;5.28;2.42;;;9.30;1.00;;;;;;6339529;22;20630;-84
2022/02/16 15:15:08;;;;;;;3.03;1.90;;;9.40;1.00;;;;;;6341246;22;20270;-83
2022/02/16 15:17:35;;;;;;;3.20;1.90;;;9.40;1.00;;;;;;6341527;22;20417;-84
2022/02/16 15:20:05;;;;;;;2.33;2.00;;;9.50;1.00;;;;;;6341380;22;21553;-83
2022/02/16 15:22:32;;;;;;;2.97;1.90;;;9.50;1.00;;;;;;6340756;22;20315;-83
2022/02/16 15:25:01;;;;;;;2.93;2.10;;;9.60;1.00;;;;;;6339406;22;21229;-84
2022/02/16 15:27:28;;;;;;;2.70;1.70;;;9.60;1.00;;;;;;6341126;22;20358;-84
2022/02/16 15:29:55;;;;;;;2.50;1.60;;;9.60;1.00;;;;;;6343604;22;20471;-85
2022/02/16 15:32:22;;;;;;;2.90;1.70;;;9.70;1.00;;;;;;6344148;22;20416;-83
2022/02/16 15:34:49;;;;;;;2.10;1.87;;;9.70;1.00;;;;;;6350374;22;20439;-85
2022/02/16 15:37:18;;;;;;;2.07;1.47;;;9.70;1.00;;;;;;6348095;22;20404;-84
2022/02/16 15:39:47;;;;;;;1.90;1.30;;;9.70;1.00;;;;;;6353739;22;20389;-84
2022/02/16 15:42:15;;;;;;;2.07;1.50;;;9.70;1.00;;;;;;6362199;22;20381;-85
2022/02/16 15:44:42;;;;;;;3.20;1.83;;;9.70;1.00;;;;;;6355635;22;20489;-85
2022/02/16 15:47:09;;;;;;;2.63;2.03;;;9.70;1.00;;;;;;6349164;22;20424;-84
2022/02/16 15:49:36;;;;;;;2.43;2.03;;;9.80;1.00;;;;;;6349514;22;20389;-82
2022/02/16 15:52:04;;;;;;;2.00;1.70;;;9.80;1.00;;;;;;6351504;22;20393;-84
2022/02/16 15:54:34;;;;;;;2.80;1.87;;;9.90;1.00;;;;;;6359791;22;20374;-83
2022/02/16 15:57:01;;;;;;;2.87;1.77;;;9.90;1.00;;;;;;6361229;22;20401;-83